Terminal Aerodrome Forecast
Issued by NWS

Home | Current Version | Previous Version | Graphics & Text | Print | Product List | Glossary On
Versions: 1 2 3 4 5 6 7 8 9 10 11 12 13 14 15 16 17 18 19 20 21 22 23 24 25 26 27
000
FTUS43 KABR 270441 AAB
TAFMBG
TAF AMD
KMBG 270441Z 2705/2724 13011KT P6SM VCTS SCT070CB
      TEMPO 2705/2707 -TSRA
     FM270800 13015KT P6SM SKC
     FM271700 15023G30KT P6SM FEW250
      AMD NOT SKED=

USA.gov is the U.S. government's official web portal to all federal, state and local government web resources and services.